createdAt,value
2022-10-27T00:00:46.116Z,5.18
2022-10-27T00:03:15.818Z,5.80
2022-10-27T00:05:45.083Z,4.88
2022-10-27T00:08:17.863Z,5.70
2022-10-27T00:10:45.625Z,5.45
2022-10-27T00:13:14.153Z,5.20
2022-10-27T00:15:41.667Z,5.50
2022-10-27T00:18:10.395Z,5.05
2022-10-27T00:20:37.882Z,5.35
2022-10-27T00:23:05.293Z,5.05
2022-10-27T00:25:32.402Z,5.30
2022-10-27T00:27:59.455Z,5.07
2022-10-27T00:30:26.532Z,4.68
2022-10-27T00:32:54.143Z,5.28
2022-10-27T00:35:21.413Z,5.55
2022-10-27T00:37:48.673Z,5.35
2022-10-27T00:40:16.044Z,4.43
2022-10-27T00:42:43.108Z,5.47
2022-10-27T00:45:10.349Z,5.70
2022-10-27T00:47:38.561Z,5.35
2022-10-27T00:50:13.820Z,5.32
2022-10-27T00:52:48.268Z,5.50
2022-10-27T00:55:20.944Z,5.15
2022-10-27T00:57:51.581Z,5.22
2022-10-27T01:00:19.512Z,5.72
2022-10-27T01:02:47.507Z,5.63
2022-10-27T01:05:20.560Z,5.43
2022-10-27T01:07:50.085Z,5.30
2022-10-27T01:10:17.577Z,5.15
2022-10-27T01:12:46.019Z,5.25
2022-10-27T01:15:13.505Z,5.55
2022-10-27T01:18:22.396Z,5.35
2022-10-27T01:21:11.230Z,5.68
2022-10-27T01:24:06.221Z,5.80
2022-10-27T01:27:14.705Z,5.43
2022-10-27T01:29:59.268Z,5.80
2022-10-27T01:32:47.206Z,5.75
2022-10-27T01:35:25.463Z,5.28
2022-10-27T01:37:55.932Z,5.43
2022-10-27T01:40:28.539Z,5.93
2022-10-27T01:43:10.263Z,5.30
2022-10-27T01:45:39.491Z,5.35
2022-10-27T01:48:08.792Z,5.88
2022-10-27T01:50:45.426Z,5.95
2022-10-27T01:53:25.480Z,6.20
2022-10-27T01:56:04.331Z,5.43
2022-10-27T01:58:51.472Z,5.68
2022-10-27T02:01:36.886Z,5.97
2022-10-27T02:04:24.909Z,5.53
2022-10-27T02:07:11.814Z,6.18
2022-10-27T02:10:12.845Z,6.45
2022-10-27T02:12:41.047Z,6.30
2022-10-27T02:15:38.841Z,6.32
2022-10-27T02:18:11.218Z,6.20
2022-10-27T02:20:43.604Z,5.68
2022-10-27T02:23:16.429Z,6.25
2022-10-27T02:25:57.901Z,6.90
2022-10-27T02:28:33.741Z,6.28
2022-10-27T02:31:01.960Z,5.55
2022-10-27T02:33:28.973Z,6.20
2022-10-27T02:35:57.458Z,6.40
2022-10-27T02:38:24.489Z,6.20
2022-10-27T02:40:51.748Z,6.57
2022-10-27T02:43:18.799Z,6.57
2022-10-27T02:45:45.919Z,5.97
2022-10-27T02:48:12.932Z,6.55
2022-10-27T02:53:11.932Z,6.50
2022-10-27T02:55:38.938Z,6.10
2022-10-27T02:58:05.964Z,7.57
2022-10-27T03:00:32.954Z,6.35
2022-10-27T03:03:00.028Z,6.60
2022-10-27T03:05:27.109Z,7.07
2022-10-27T03:07:54.105Z,6.93
2022-10-27T03:10:21.200Z,7.60
2022-10-27T03:12:51.284Z,6.80
2022-10-27T03:15:18.457Z,7.15
2022-10-27T03:17:46.915Z,7.70
2022-10-27T03:20:15.581Z,7.78
2022-10-27T03:22:42.959Z,10.55
2022-10-27T03:25:15.352Z,7.28
2022-10-27T03:27:43.868Z,7.18
2022-10-27T03:30:14.350Z,7.00
2022-10-27T03:32:49.975Z,6.38
2022-10-27T03:35:21.414Z,6.72
2022-10-27T03:37:58.711Z,7.53
2022-10-27T03:40:26.695Z,7.15
2022-10-27T03:42:57.648Z,7.20
2022-10-27T03:45:28.792Z,7.72
2022-10-27T03:48:06.549Z,6.47
2022-10-27T03:50:34.318Z,6.35
2022-10-27T03:53:03.583Z,6.70
2022-10-27T03:55:31.502Z,7.53
2022-10-27T03:57:59.095Z,7.13
2022-10-27T04:00:26.430Z,7.43
2022-10-27T04:02:54.761Z,6.95
2022-10-27T04:05:22.916Z,6.43
2022-10-27T04:07:49.964Z,7.13
2022-10-27T04:10:17.251Z,7.20
2022-10-27T04:12:55.439Z,6.80
2022-10-27T04:15:27.126Z,7.00
2022-10-27T04:17:55.709Z,6.50
2022-10-27T04:20:23.400Z,7.05
2022-10-27T04:22:50.760Z,6.97
2022-10-27T04:25:18.041Z,6.35
2022-10-27T04:27:46.905Z,7.25
2022-10-27T04:30:13.934Z,6.32
2022-10-27T04:32:43.783Z,7.00
2022-10-27T04:35:11.556Z,6.45
2022-10-27T04:37:38.709Z,6.75
2022-10-27T04:40:06.215Z,6.70
2022-10-27T04:42:34.251Z,7.28
2022-10-27T04:45:01.236Z,6.72
2022-10-27T04:47:28.292Z,6.78
2022-10-27T04:49:55.295Z,6.63
2022-10-27T04:52:22.352Z,6.82
2022-10-27T04:54:49.305Z,6.95
2022-10-27T04:57:16.390Z,6.60
2022-10-27T04:59:43.402Z,7.15
2022-10-27T05:02:10.459Z,7.53
2022-10-27T05:04:37.551Z,6.75
2022-10-27T05:07:04.570Z,7.00
2022-10-27T05:09:31.612Z,6.85
2022-10-27T05:11:58.584Z,6.95
2022-10-27T05:14:25.566Z,6.70
2022-10-27T05:16:52.614Z,7.25
2022-10-27T05:19:19.746Z,6.53
2022-10-27T05:21:49.917Z,6.85
2022-10-27T05:24:17.067Z,7.32
2022-10-27T05:26:44.109Z,7.95
2022-10-27T05:29:13.774Z,7.32
2022-10-27T05:31:40.793Z,7.32
2022-10-27T05:34:10.009Z,7.18
2022-10-27T05:36:40.276Z,7.65
2022-10-27T05:41:37.642Z,7.30
2022-10-27T05:44:04.873Z,7.47
2022-10-27T05:46:32.304Z,7.63
2022-10-27T05:48:59.301Z,7.10
2022-10-27T05:51:26.359Z,7.68
2022-10-27T05:53:56.606Z,7.95
2022-10-27T05:56:24.193Z,7.30
2022-10-27T05:58:51.303Z,6.68
2022-10-27T06:01:18.559Z,6.57
2022-10-27T06:03:46.397Z,7.97
2022-10-27T06:06:17.799Z,8.15
2022-10-27T06:08:47.743Z,7.35
2022-10-27T06:11:15.465Z,8.65
2022-10-27T06:13:42.451Z,7.75
2022-10-27T06:16:12.201Z,7.50
2022-10-27T06:18:40.498Z,6.88
2022-10-27T06:21:07.667Z,8.00
2022-10-27T06:23:34.829Z,7.63
2022-10-27T06:26:01.798Z,6.85
2022-10-27T06:28:29.666Z,7.70
2022-10-27T06:30:56.801Z,7.80
2022-10-27T06:33:24.037Z,7.82
2022-10-27T06:35:51.224Z,7.28
2022-10-27T06:38:18.294Z,6.63
2022-10-27T06:40:45.662Z,7.30
2022-10-27T06:43:13.714Z,7.57
2022-10-27T06:45:41.076Z,8.15
2022-10-27T06:48:10.771Z,7.28
2022-10-27T06:50:37.958Z,7.18
2022-10-27T06:53:05.222Z,6.68
2022-10-27T06:55:32.229Z,7.20
2022-10-27T06:57:59.308Z,7.35
2022-10-27T07:00:26.997Z,7.65
2022-10-27T07:02:54.144Z,6.80
2022-10-27T07:05:21.285Z,8.10
2022-10-27T07:07:50.173Z,6.80
2022-10-27T07:10:18.181Z,8.02
2022-10-27T07:13:11.713Z,7.88
2022-10-27T07:15:39.416Z,8.27
2022-10-27T07:18:26.476Z,7.70
2022-10-27T07:20:53.951Z,8.20
2022-10-27T07:23:21.161Z,8.63
2022-10-27T07:25:49.222Z,7.60
2022-10-27T07:28:17.973Z,7.55
2022-10-27T07:30:45.299Z,8.63
2022-10-27T07:33:12.658Z,7.63
2022-10-27T07:35:40.248Z,7.28
2022-10-27T07:38:08.141Z,8.15
2022-10-27T07:40:35.369Z,7.70
2022-10-27T07:43:06.836Z,7.03
2022-10-27T07:45:40.961Z,7.35
2022-10-27T07:48:12.398Z,7.15
2022-10-27T07:50:40.189Z,7.82
2022-10-27T07:53:07.688Z,8.20
2022-10-27T07:55:36.897Z,8.43
2022-10-27T07:58:10.590Z,7.75
2022-10-27T08:00:48.609Z,9.25
2022-10-27T08:03:28.740Z,7.75
2022-10-27T08:05:58.286Z,8.55
2022-10-27T08:08:25.593Z,7.85
2022-10-27T08:10:52.616Z,8.07
2022-10-27T08:13:19.669Z,7.95
2022-10-27T08:15:53.411Z,8.30
2022-10-27T08:18:20.437Z,8.07
2022-10-27T08:20:48.034Z,8.88
2022-10-27T08:23:18.150Z,9.40
2022-10-27T08:25:45.614Z,8.73
2022-10-27T08:28:17.006Z,8.48
2022-10-27T08:30:51.981Z,10.68
2022-10-27T08:33:22.475Z,9.40
2022-10-27T08:35:52.741Z,9.75
2022-10-27T08:38:20.239Z,10.32
2022-10-27T08:40:53.757Z,9.88
2022-10-27T08:46:29.156Z,8.57
2022-10-27T08:49:02.952Z,9.00
2022-10-27T08:51:34.094Z,9.15
2022-10-27T08:54:01.904Z,9.93
2022-10-27T08:56:39.410Z,10.27
2022-10-27T08:59:06.746Z,9.38
2022-10-27T09:01:37.938Z,9.45
2022-10-27T09:04:31.887Z,8.50
2022-10-27T09:07:19.002Z,8.63
2022-10-27T09:09:59.976Z,8.85
2022-10-27T09:12:45.517Z,8.18
2022-10-27T09:15:28.553Z,7.80
2022-10-27T09:18:11.046Z,8.10
2022-10-27T09:20:56.399Z,8.95
2022-10-27T09:23:33.304Z,9.00
2022-10-27T09:26:00.572Z,9.63
2022-10-27T09:28:47.126Z,8.00
2022-10-27T09:31:18.402Z,8.52
2022-10-27T09:33:57.178Z,9.38
2022-10-27T09:36:24.556Z,7.25
2022-10-27T09:38:51.787Z,8.35
2022-10-27T09:41:19.196Z,8.30
2022-10-27T09:44:02.839Z,7.53
2022-10-27T09:46:32.892Z,5.53
2022-10-27T09:49:09.861Z,8.48
2022-10-27T09:51:53.261Z,7.35
2022-10-27T09:54:42.848Z,8.63
2022-10-27T09:57:19.385Z,7.05
2022-10-27T09:59:55.459Z,7.32
2022-10-27T10:02:24.036Z,8.32
2022-10-27T10:04:51.304Z,10.55
2022-10-27T10:07:34.408Z,11.60
2022-10-27T10:10:27.117Z,10.52
2022-10-27T10:13:03.511Z,9.70
2022-10-27T10:15:34.279Z,9.15
2022-10-27T10:18:03.132Z,9.13
2022-10-27T10:23:24.319Z,9.35
2022-10-27T10:25:53.180Z,8.23
2022-10-27T10:28:29.327Z,8.88
2022-10-27T10:30:57.924Z,7.45
2022-10-27T10:33:28.318Z,8.55
2022-10-27T10:35:55.618Z,8.40
2022-10-27T10:38:35.950Z,9.10
2022-10-27T10:41:13.020Z,9.02
2022-10-27T10:43:41.258Z,9.05
2022-10-27T10:46:22.094Z,8.75
2022-10-27T10:48:57.555Z,9.32
2022-10-27T10:54:10.375Z,9.57
2022-10-27T10:56:38.578Z,9.77
2022-10-27T10:59:18.071Z,9.23
2022-10-27T11:01:53.949Z,9.77
2022-10-27T11:04:28.387Z,10.63
2022-10-27T11:07:04.410Z,11.05
2022-10-27T11:09:55.170Z,10.52
2022-10-27T11:12:36.603Z,11.32
2022-10-27T11:15:13.398Z,12.32
2022-10-27T11:17:42.086Z,12.45
2022-10-27T11:20:20.643Z,12.90
2022-10-27T11:22:51.282Z,12.57
2022-10-27T11:25:22.322Z,13.52
2022-10-27T11:28:19.336Z,12.13
2022-10-27T11:31:17.799Z,13.95
2022-10-27T11:33:57.915Z,14.32
2022-10-27T11:36:33.918Z,15.35
2022-10-27T11:39:10.415Z,15.48
2022-10-27T11:41:52.066Z,15.02
2022-10-27T11:44:33.943Z,14.80
2022-10-27T11:47:22.277Z,14.88
2022-10-27T11:50:03.612Z,14.40
2022-10-27T11:52:41.626Z,15.13
2022-10-27T11:58:04.761Z,15.18
2022-10-27T12:00:45.128Z,14.90
2022-10-27T12:03:20.887Z,14.70
2022-10-27T12:06:09.930Z,14.55
2022-10-27T12:09:04.269Z,13.63
2022-10-27T12:12:02.162Z,13.38
2022-10-27T12:14:38.298Z,12.65
2022-10-27T12:17:18.483Z,13.00
2022-10-27T12:19:49.177Z,12.65
2022-10-27T12:22:36.111Z,11.30
2022-10-27T12:25:29.300Z,11.35
2022-10-27T12:27:58.733Z,11.40
2022-10-27T12:30:26.664Z,12.02
2022-10-27T12:33:16.502Z,11.02
2022-10-27T12:36:11.371Z,10.65
2022-10-27T12:39:15.736Z,10.52
2022-10-27T12:41:50.986Z,10.50
2022-10-27T12:44:52.038Z,11.05
2022-10-27T12:47:40.935Z,12.75
2022-10-27T12:50:33.769Z,12.38
2022-10-27T12:53:38.825Z,13.05
2022-10-27T12:56:28.414Z,13.02
2022-10-27T12:59:11.219Z,12.75
2022-10-27T13:01:56.155Z,13.95
2022-10-27T13:04:50.601Z,13.52
2022-10-27T13:07:53.387Z,14.88
2022-10-27T13:10:43.626Z,15.18
2022-10-27T13:13:26.079Z,13.32
2022-10-27T13:16:30.183Z,15.40
2022-10-27T13:19:31.462Z,16.35
2022-10-27T13:22:21.429Z,17.00
2022-10-27T13:25:11.161Z,16.77
2022-10-27T13:28:06.823Z,16.85
2022-10-27T13:30:39.242Z,18.00
2022-10-27T13:33:42.192Z,17.30
2022-10-27T13:39:10.792Z,16.45
2022-10-27T13:42:08.361Z,18.67
2022-10-27T13:44:43.799Z,19.42
2022-10-27T13:47:13.641Z,16.55
2022-10-27T13:49:40.818Z,17.63
2022-10-27T13:52:17.038Z,19.40
2022-10-27T13:55:04.933Z,19.85
2022-10-27T13:57:52.535Z,17.08
2022-10-27T14:00:26.907Z,15.68
2022-10-27T14:03:00.081Z,18.33
2022-10-27T14:05:40.998Z,17.20
2022-10-27T14:08:34.485Z,16.75
2022-10-27T14:11:09.984Z,16.02
2022-10-27T14:13:41.460Z,15.98
2022-10-27T14:16:20.065Z,16.48
2022-10-27T14:19:02.992Z,16.92
2022-10-27T14:21:36.009Z,15.63
2022-10-27T14:24:06.428Z,18.77
2022-10-27T14:26:34.705Z,24.30
2022-10-27T14:29:06.207Z,25.10
2022-10-27T14:31:33.563Z,25.70
2022-10-27T14:34:16.870Z,18.90
2022-10-27T14:39:30.020Z,18.45
2022-10-27T14:42:02.994Z,15.77
2022-10-27T14:44:33.807Z,15.60
2022-10-27T14:47:09.182Z,15.70
2022-10-27T14:49:43.037Z,13.90
2022-10-27T14:52:51.750Z,14.40
2022-10-27T14:55:36.602Z,17.77
2022-10-27T14:58:20.274Z,16.38
2022-10-27T15:00:53.891Z,15.32
2022-10-27T15:03:20.928Z,17.23
2022-10-27T15:05:49.685Z,16.33
2022-10-27T15:08:28.404Z,16.08
2022-10-27T15:11:04.899Z,16.63
2022-10-27T15:13:32.131Z,15.63
2022-10-27T15:16:04.980Z,17.83
2022-10-27T15:18:36.390Z,16.30
2022-10-27T15:21:16.089Z,17.02
2022-10-27T15:23:46.746Z,17.23
2022-10-27T15:26:26.680Z,15.85
2022-10-27T15:28:55.539Z,15.43
2022-10-27T15:31:23.524Z,15.57
2022-10-27T15:34:03.206Z,15.75
2022-10-27T15:36:31.246Z,15.05
2022-10-27T15:38:58.375Z,16.00
2022-10-27T15:41:28.905Z,15.93
2022-10-27T15:44:26.726Z,15.40
2022-10-27T15:46:53.893Z,15.10
2022-10-27T15:49:33.338Z,15.30
2022-10-27T15:52:05.224Z,15.65
2022-10-27T15:54:43.256Z,14.70
2022-10-27T15:57:42.330Z,14.18
2022-10-27T16:00:24.611Z,15.80
2022-10-27T16:02:56.518Z,15.18
2022-10-27T16:05:32.436Z,14.63
2022-10-27T16:08:22.772Z,16.15
2022-10-27T16:10:52.851Z,13.95
2022-10-27T16:13:22.330Z,14.82
2022-10-27T16:15:50.727Z,14.73
2022-10-27T16:18:22.119Z,14.43
2022-10-27T16:20:49.167Z,15.40
2022-10-27T16:23:16.557Z,14.07
2022-10-27T16:25:45.969Z,17.05
2022-10-27T16:28:22.215Z,19.80
2022-10-27T16:30:49.363Z,15.00
2022-10-27T16:33:24.648Z,17.10
2022-10-27T16:35:51.955Z,14.32
2022-10-27T16:38:19.204Z,13.85
2022-10-27T16:40:48.214Z,11.65
2022-10-27T16:43:23.906Z,10.98
2022-10-27T16:45:51.256Z,9.55
2022-10-27T16:48:18.327Z,10.02
2022-10-27T16:50:46.577Z,11.00
2022-10-27T16:53:20.054Z,9.93
2022-10-27T16:55:58.344Z,8.57
2022-10-27T16:58:25.693Z,15.43
2022-10-27T17:00:53.245Z,11.88
2022-10-27T17:03:20.423Z,13.95
2022-10-27T17:05:47.430Z,9.00
2022-10-27T17:08:15.011Z,10.05
2022-10-27T17:10:42.408Z,11.82
2022-10-27T17:13:09.521Z,14.57
2022-10-27T17:15:37.432Z,22.05
2022-10-27T17:18:04.617Z,23.35
2022-10-27T17:20:31.988Z,19.63
2022-10-27T17:23:04.759Z,18.75
2022-10-27T17:25:32.501Z,17.13
2022-10-27T17:28:01.408Z,14.75
2022-10-27T17:30:28.505Z,16.05
2022-10-27T17:32:55.452Z,16.08
2022-10-27T17:35:22.505Z,15.75
2022-10-27T17:37:49.709Z,13.23
2022-10-27T17:40:16.980Z,22.95
2022-10-27T17:42:44.023Z,20.58
2022-10-27T17:45:11.324Z,18.42
2022-10-27T17:47:38.353Z,16.08
2022-10-27T17:50:08.994Z,17.60
2022-10-27T17:52:37.230Z,18.10
2022-10-27T17:55:05.034Z,21.33
2022-10-27T17:57:32.021Z,23.17
2022-10-27T17:59:59.160Z,25.65
2022-10-27T18:02:26.318Z,25.60
2022-10-27T18:04:53.826Z,27.95
2022-10-27T18:07:22.501Z,27.20
2022-10-27T18:09:49.506Z,23.13
2022-10-27T18:12:16.535Z,21.65
2022-10-27T18:14:43.592Z,19.42
2022-10-27T18:17:11.088Z,17.67
2022-10-27T18:19:41.227Z,19.02
2022-10-27T18:22:08.762Z,17.10
2022-10-27T18:24:36.276Z,19.50
2022-10-27T18:27:03.372Z,18.67
2022-10-27T18:29:32.402Z,18.00
2022-10-27T18:31:59.457Z,16.83
2022-10-27T18:34:26.567Z,18.50
2022-10-27T18:36:53.908Z,21.05
2022-10-27T18:39:21.099Z,22.30
2022-10-27T18:41:51.273Z,27.38
2022-10-27T18:44:19.892Z,26.85
2022-10-27T18:46:47.290Z,21.10
2022-10-27T18:49:16.035Z,18.88
2022-10-27T18:51:47.767Z,17.05
2022-10-27T18:54:14.787Z,12.70
2022-10-27T18:56:41.844Z,12.25
2022-10-27T18:59:13.260Z,13.93
2022-10-27T19:01:42.722Z,11.13
2022-10-27T19:04:09.831Z,9.93
2022-10-27T19:06:38.122Z,9.98
2022-10-27T19:09:05.764Z,10.27
2022-10-27T19:11:35.566Z,9.85
2022-10-27T19:14:03.321Z,10.05
2022-10-27T19:16:31.305Z,9.00
2022-10-27T19:18:59.464Z,8.82
2022-10-27T19:21:27.489Z,7.80
2022-10-27T19:23:57.090Z,7.97
2022-10-27T19:26:29.085Z,8.35
2022-10-27T19:28:57.980Z,8.50
2022-10-27T19:31:29.114Z,8.32
2022-10-27T19:33:57.498Z,9.50
2022-10-27T19:36:30.824Z,9.48
2022-10-27T19:39:00.191Z,9.00
2022-10-27T19:41:29.447Z,8.20
2022-10-27T19:43:57.733Z,7.65
2022-10-27T19:46:26.030Z,7.85
2022-10-27T19:48:55.702Z,8.32
2022-10-27T19:51:29.337Z,8.20
2022-10-27T19:53:58.612Z,7.57
2022-10-27T19:56:28.021Z,7.47
2022-10-27T19:59:01.361Z,7.47
2022-10-27T20:01:32.078Z,6.90
2022-10-27T20:04:00.939Z,6.55
2022-10-27T20:06:28.659Z,7.43
2022-10-27T20:08:56.663Z,6.97
2022-10-27T20:11:27.058Z,7.03
2022-10-27T20:13:56.770Z,6.72
2022-10-27T20:16:29.846Z,6.72
2022-10-27T20:19:02.317Z,7.18
2022-10-27T20:21:29.545Z,7.23
2022-10-27T20:23:56.642Z,6.57
2022-10-27T20:26:29.037Z,6.60
2022-10-27T20:29:00.658Z,7.05
2022-10-27T20:31:35.273Z,7.07
2022-10-27T20:34:06.192Z,5.97
2022-10-27T20:36:33.270Z,6.63
2022-10-27T20:39:00.475Z,6.80
2022-10-27T20:41:27.749Z,6.15
2022-10-27T20:43:59.962Z,6.68
2022-10-27T20:46:29.865Z,6.13
2022-10-27T20:49:00.336Z,5.75
2022-10-27T20:51:29.978Z,6.05
2022-10-27T20:53:57.672Z,6.47
2022-10-27T20:56:30.756Z,5.40
2022-10-27T20:58:57.917Z,6.15
2022-10-27T21:01:25.072Z,6.10
2022-10-27T21:03:58.439Z,6.03
2022-10-27T21:06:27.604Z,6.10
2022-10-27T21:08:56.340Z,5.85
2022-10-27T21:11:24.410Z,6.07
2022-10-27T21:13:53.361Z,6.47
2022-10-27T21:16:21.548Z,6.32
2022-10-27T21:18:53.488Z,6.65
2022-10-27T21:21:22.685Z,7.32
2022-10-27T21:23:50.195Z,7.00
2022-10-27T21:26:18.148Z,7.18
2022-10-27T21:28:53.351Z,6.88
2022-10-27T21:31:22.622Z,8.90
2022-10-27T21:33:50.375Z,8.85
2022-10-27T21:36:17.522Z,9.80
2022-10-27T21:38:48.238Z,10.48
2022-10-27T21:41:17.456Z,11.15
2022-10-27T21:43:46.457Z,9.80
2022-10-27T21:46:15.495Z,10.07
2022-10-27T21:48:42.860Z,9.80
2022-10-27T21:51:13.950Z,10.05
2022-10-27T21:53:42.029Z,9.98
2022-10-27T21:56:12.773Z,11.13
2022-10-27T21:58:41.120Z,11.88
2022-10-27T22:01:18.767Z,10.75
2022-10-27T22:03:48.864Z,10.82
2022-10-27T22:06:17.563Z,11.02
2022-10-27T22:08:45.522Z,10.98
2022-10-27T22:11:18.417Z,11.18
2022-10-27T22:13:45.764Z,10.95
2022-10-27T22:16:17.895Z,9.02
2022-10-27T22:18:46.123Z,9.90
2022-10-27T22:21:15.922Z,10.45
2022-10-27T22:23:44.839Z,9.60
2022-10-27T22:26:14.521Z,10.35
2022-10-27T22:28:42.667Z,10.05
2022-10-27T22:31:16.056Z,9.32
2022-10-27T22:33:45.830Z,9.45
2022-10-27T22:36:15.876Z,9.70
2022-10-27T22:38:43.477Z,8.70
2022-10-27T22:41:13.044Z,9.35
2022-10-27T22:43:41.787Z,9.38
2022-10-27T22:46:14.576Z,9.68
2022-10-27T22:48:43.932Z,9.48
2022-10-27T22:51:13.354Z,10.05
2022-10-27T22:53:41.961Z,9.77
2022-10-27T22:56:14.370Z,9.77
2022-10-27T22:58:42.085Z,9.82
2022-10-27T23:01:13.007Z,10.02
2022-10-27T23:03:40.852Z,8.68
2022-10-27T23:06:08.997Z,9.85
2022-10-27T23:08:39.467Z,9.60
2022-10-27T23:11:07.676Z,9.70
2022-10-27T23:13:37.257Z,11.10
2022-10-27T23:16:07.666Z,10.85
2022-10-27T23:18:37.204Z,10.13
2022-10-27T23:21:05.946Z,10.68
2022-10-27T23:23:34.017Z,10.40
2022-10-27T23:26:02.185Z,11.60
2022-10-27T23:28:30.261Z,10.88
2022-10-27T23:31:01.216Z,11.35
2022-10-27T23:33:28.386Z,10.23
2022-10-27T23:36:01.342Z,11.13
2022-10-27T23:40:58.380Z,10.30
2022-10-27T23:43:27.067Z,11.27
2022-10-27T23:46:00.400Z,10.25
2022-10-27T23:48:27.678Z,11.20
2022-10-27T23:50:54.690Z,10.45
2022-10-27T23:53:21.806Z,12.02
2022-10-27T23:55:56.365Z,11.35
2022-10-27T23:58:24.051Z,11.00
